sensor_id;sensor_type;location;lat;lon;timestamp;P1;durP1;ratioP1;P2;durP2;ratioP2
40198;SDS011;25906;43.536;26.068;2023-03-14T00:01:14;5.05;;;2.30;;
40198;SDS011;25906;43.536;26.068;2023-03-14T00:04:00;4.32;;;2.55;;
40198;SDS011;25906;43.536;26.068;2023-03-14T00:06:48;5.40;;;2.53;;
40198;SDS011;25906;43.536;26.068;2023-03-14T00:09:34;7.40;;;2.13;;
40198;SDS011;25906;43.536;26.068;2023-03-14T00:12:20;3.65;;;2.30;;
40198;SDS011;25906;43.536;26.068;2023-03-14T00:15:05;7.55;;;2.67;;
40198;SDS011;25906;43.536;26.068;2023-03-14T00:17:52;4.82;;;2.65;;
40198;SDS011;25906;43.536;26.068;2023-03-14T00:20:37;6.45;;;2.60;;
40198;SDS011;25906;43.536;26.068;2023-03-14T00:23:22;6.88;;;2.65;;
40198;SDS011;25906;43.536;26.068;2023-03-14T00:26:09;4.57;;;2.80;;
40198;SDS011;25906;43.536;26.068;2023-03-14T00:28:59;4.97;;;2.75;;
40198;SDS011;25906;43.536;26.068;2023-03-14T00:31:44;4.10;;;2.70;;
40198;SDS011;25906;43.536;26.068;2023-03-14T00:34:30;10.98;;;2.88;;
40198;SDS011;25906;43.536;26.068;2023-03-14T00:37:16;2.78;;;2.47;;
40198;SDS011;25906;43.536;26.068;2023-03-14T00:40:02;4.47;;;2.40;;
40198;SDS011;25906;43.536;26.068;2023-03-14T00:42:50;3.10;;;2.28;;
40198;SDS011;25906;43.536;26.068;2023-03-14T00:45:36;5.70;;;2.90;;
40198;SDS011;25906;43.536;26.068;2023-03-14T00:48:21;3.03;;;2.28;;
40198;SDS011;25906;43.536;26.068;2023-03-14T00:51:07;5.60;;;2.50;;
40198;SDS011;25906;43.536;26.068;2023-03-14T00:53:53;5.93;;;2.28;;
40198;SDS011;25906;43.536;26.068;2023-03-14T00:56:39;2.78;;;2.25;;
40198;SDS011;25906;43.536;26.068;2023-03-14T00:59:24;4.68;;;2.22;;
40198;SDS011;25906;43.536;26.068;2023-03-14T01:02:09;3.63;;;2.15;;
40198;SDS011;25906;43.536;26.068;2023-03-14T01:04:55;3.50;;;2.50;;
40198;SDS011;25906;43.536;26.068;2023-03-14T01:07:40;6.35;;;2.50;;
40198;SDS011;25906;43.536;26.068;2023-03-14T01:10:25;5.25;;;2.88;;
40198;SDS011;25906;43.536;26.068;2023-03-14T01:13:11;3.53;;;2.28;;
40198;SDS011;25906;43.536;26.068;2023-03-14T01:16:00;4.85;;;2.47;;
40198;SDS011;25906;43.536;26.068;2023-03-14T01:18:46;5.70;;;2.30;;
40198;SDS011;25906;43.536;26.068;2023-03-14T01:21:33;4.68;;;2.35;;
40198;SDS011;25906;43.536;26.068;2023-03-14T01:24:20;4.13;;;2.30;;
40198;SDS011;25906;43.536;26.068;2023-03-14T01:27:05;5.18;;;2.50;;
40198;SDS011;25906;43.536;26.068;2023-03-14T01:29:51;4.13;;;2.70;;
40198;SDS011;25906;43.536;26.068;2023-03-14T01:32:36;5.13;;;2.35;;
40198;SDS011;25906;43.536;26.068;2023-03-14T01:38:07;4.30;;;2.58;;
40198;SDS011;25906;43.536;26.068;2023-03-14T01:40:52;2.90;;;1.90;;
40198;SDS011;25906;43.536;26.068;2023-03-14T01:43:38;6.93;;;2.50;;
40198;SDS011;25906;43.536;26.068;2023-03-14T01:49:31;6.00;;;2.55;;
40198;SDS011;25906;43.536;26.068;2023-03-14T01:52:22;4.55;;;2.45;;
40198;SDS011;25906;43.536;26.068;2023-03-14T01:55:12;3.53;;;2.42;;
40198;SDS011;25906;43.536;26.068;2023-03-14T01:58:01;5.45;;;2.35;;
40198;SDS011;25906;43.536;26.068;2023-03-14T02:00:49;4.22;;;2.30;;
40198;SDS011;25906;43.536;26.068;2023-03-14T02:03:36;3.47;;;2.22;;
40198;SDS011;25906;43.536;26.068;2023-03-14T02:06:33;6.57;;;2.70;;
40198;SDS011;25906;43.536;26.068;2023-03-14T02:09:25;4.40;;;2.63;;
40198;SDS011;25906;43.536;26.068;2023-03-14T02:14:58;3.60;;;2.13;;
40198;SDS011;25906;43.536;26.068;2023-03-14T02:17:44;2.92;;;2.20;;
40198;SDS011;25906;43.536;26.068;2023-03-14T02:26:20;4.10;;;2.08;;
40198;SDS011;25906;43.536;26.068;2023-03-14T02:29:10;4.97;;;2.45;;
40198;SDS011;25906;43.536;26.068;2023-03-14T02:31:56;3.75;;;2.05;;
40198;SDS011;25906;43.536;26.068;2023-03-14T02:34:42;4.13;;;2.30;;
40198;SDS011;25906;43.536;26.068;2023-03-14T02:37:33;5.90;;;2.28;;
40198;SDS011;25906;43.536;26.068;2023-03-14T02:40:23;5.30;;;2.28;;
40198;SDS011;25906;43.536;26.068;2023-03-14T02:43:09;4.68;;;2.20;;
40198;SDS011;25906;43.536;26.068;2023-03-14T02:45:54;2.88;;;2.03;;
40198;SDS011;25906;43.536;26.068;2023-03-14T02:48:45;2.28;;;1.80;;
40198;SDS011;25906;43.536;26.068;2023-03-14T02:51:39;5.38;;;2.20;;
40198;SDS011;25906;43.536;26.068;2023-03-14T02:54:26;3.95;;;1.98;;
40198;SDS011;25906;43.536;26.068;2023-03-14T02:57:12;2.80;;;2.00;;
40198;SDS011;25906;43.536;26.068;2023-03-14T03:00:01;4.18;;;2.35;;
40198;SDS011;25906;43.536;26.068;2023-03-14T03:02:50;4.22;;;2.13;;
40198;SDS011;25906;43.536;26.068;2023-03-14T03:05:36;3.92;;;2.28;;
40198;SDS011;25906;43.536;26.068;2023-03-14T03:08:22;5.43;;;2.45;;
40198;SDS011;25906;43.536;26.068;2023-03-14T03:11:08;5.28;;;2.30;;
40198;SDS011;25906;43.536;26.068;2023-03-14T03:13:54;6.63;;;2.20;;
40198;SDS011;25906;43.536;26.068;2023-03-14T03:16:39;3.83;;;2.03;;
40198;SDS011;25906;43.536;26.068;2023-03-14T03:19:24;4.65;;;2.15;;
40198;SDS011;25906;43.536;26.068;2023-03-14T03:22:10;4.28;;;2.30;;
40198;SDS011;25906;43.536;26.068;2023-03-14T03:24:55;4.00;;;2.15;;
40198;SDS011;25906;43.536;26.068;2023-03-14T03:27:41;3.70;;;1.88;;
40198;SDS011;25906;43.536;26.068;2023-03-14T03:30:26;8.35;;;2.20;;
40198;SDS011;25906;43.536;26.068;2023-03-14T03:33:12;3.42;;;2.00;;
40198;SDS011;25906;43.536;26.068;2023-03-14T03:35:57;3.65;;;2.03;;
40198;SDS011;25906;43.536;26.068;2023-03-14T03:38:43;2.25;;;1.42;;
40198;SDS011;25906;43.536;26.068;2023-03-14T03:41:28;4.32;;;1.80;;
40198;SDS011;25906;43.536;26.068;2023-03-14T03:44:14;2.92;;;1.77;;
40198;SDS011;25906;43.536;26.068;2023-03-14T03:47:00;6.55;;;2.28;;
40198;SDS011;25906;43.536;26.068;2023-03-14T03:49:45;3.17;;;1.98;;
40198;SDS011;25906;43.536;26.068;2023-03-14T03:52:31;3.90;;;1.90;;
40198;SDS011;25906;43.536;26.068;2023-03-14T03:55:16;5.82;;;2.05;;
40198;SDS011;25906;43.536;26.068;2023-03-14T03:58:02;5.28;;;2.50;;
40198;SDS011;25906;43.536;26.068;2023-03-14T04:00:47;4.03;;;2.28;;
40198;SDS011;25906;43.536;26.068;2023-03-14T04:03:32;2.92;;;1.92;;
40198;SDS011;25906;43.536;26.068;2023-03-14T04:06:18;2.95;;;1.90;;
40198;SDS011;25906;43.536;26.068;2023-03-14T04:09:03;4.68;;;2.20;;
40198;SDS011;25906;43.536;26.068;2023-03-14T04:11:49;3.30;;;1.80;;
40198;SDS011;25906;43.536;26.068;2023-03-14T04:14:34;4.50;;;1.88;;
40198;SDS011;25906;43.536;26.068;2023-03-14T04:17:20;3.17;;;2.00;;
40198;SDS011;25906;43.536;26.068;2023-03-14T04:20:05;2.58;;;2.08;;
40198;SDS011;25906;43.536;26.068;2023-03-14T04:22:55;2.75;;;1.90;;
40198;SDS011;25906;43.536;26.068;2023-03-14T04:25:40;2.92;;;1.90;;
40198;SDS011;25906;43.536;26.068;2023-03-14T04:28:26;4.40;;;2.50;;
40198;SDS011;25906;43.536;26.068;2023-03-14T04:31:13;3.35;;;2.42;;
40198;SDS011;25906;43.536;26.068;2023-03-14T04:33:59;3.15;;;2.17;;
40198;SDS011;25906;43.536;26.068;2023-03-14T04:36:45;4.07;;;2.38;;
40198;SDS011;25906;43.536;26.068;2023-03-14T04:39:30;5.18;;;2.08;;
40198;SDS011;25906;43.536;26.068;2023-03-14T04:42:16;5.18;;;2.10;;
40198;SDS011;25906;43.536;26.068;2023-03-14T04:45:01;5.63;;;2.00;;
40198;SDS011;25906;43.536;26.068;2023-03-14T04:47:47;6.15;;;2.20;;
40198;SDS011;25906;43.536;26.068;2023-03-14T04:50:32;2.78;;;1.95;;
40198;SDS011;25906;43.536;26.068;2023-03-14T04:53:18;2.85;;;1.80;;
40198;SDS011;25906;43.536;26.068;2023-03-14T04:56:04;2.60;;;1.73;;
40198;SDS011;25906;43.536;26.068;2023-03-14T05:01:35;2.78;;;2.00;;
40198;SDS011;25906;43.536;26.068;2023-03-14T05:04:20;2.35;;;1.80;;
40198;SDS011;25906;43.536;26.068;2023-03-14T05:07:06;2.03;;;1.50;;
40198;SDS011;25906;43.536;26.068;2023-03-14T05:09:51;3.70;;;2.25;;
40198;SDS011;25906;43.536;26.068;2023-03-14T05:12:38;3.88;;;1.85;;
40198;SDS011;25906;43.536;26.068;2023-03-14T05:15:23;2.95;;;1.98;;
40198;SDS011;25906;43.536;26.068;2023-03-14T05:18:09;4.13;;;2.08;;
40198;SDS011;25906;43.536;26.068;2023-03-14T05:20:54;5.55;;;1.80;;
40198;SDS011;25906;43.536;26.068;2023-03-14T05:23:39;8.43;;;2.35;;
40198;SDS011;25906;43.536;26.068;2023-03-14T05:26:25;7.15;;;2.92;;
40198;SDS011;25906;43.536;26.068;2023-03-14T05:29:11;6.13;;;2.75;;
40198;SDS011;25906;43.536;26.068;2023-03-14T05:31:56;5.25;;;3.25;;
40198;SDS011;25906;43.536;26.068;2023-03-14T05:34:41;2.65;;;2.13;;
40198;SDS011;25906;43.536;26.068;2023-03-14T05:37:27;11.82;;;2.20;;
40198;SDS011;25906;43.536;26.068;2023-03-14T05:40:12;3.83;;;2.10;;
40198;SDS011;25906;43.536;26.068;2023-03-14T05:42:58;4.95;;;2.47;;
40198;SDS011;25906;43.536;26.068;2023-03-14T05:45:43;5.43;;;2.28;;
40198;SDS011;25906;43.536;26.068;2023-03-14T05:48:28;4.88;;;2.35;;
40198;SDS011;25906;43.536;26.068;2023-03-14T05:51:14;7.25;;;2.88;;
40198;SDS011;25906;43.536;26.068;2023-03-14T05:53:59;4.00;;;2.47;;
40198;SDS011;25906;43.536;26.068;2023-03-14T05:56:45;4.38;;;2.50;;
40198;SDS011;25906;43.536;26.068;2023-03-14T05:59:30;5.45;;;2.40;;
40198;SDS011;25906;43.536;26.068;2023-03-14T06:02:15;7.80;;;2.45;;
40198;SDS011;25906;43.536;26.068;2023-03-14T06:05:01;6.70;;;2.30;;
40198;SDS011;25906;43.536;26.068;2023-03-14T06:07:46;4.22;;;2.60;;
40198;SDS011;25906;43.536;26.068;2023-03-14T06:10:32;6.10;;;2.90;;
40198;SDS011;25906;43.536;26.068;2023-03-14T06:13:19;12.48;;;2.83;;
40198;SDS011;25906;43.536;26.068;2023-03-14T06:16:05;3.10;;;2.10;;
40198;SDS011;25906;43.536;26.068;2023-03-14T06:18:51;4.53;;;2.58;;
40198;SDS011;25906;43.536;26.068;2023-03-14T06:21:37;6.18;;;2.60;;
40198;SDS011;25906;43.536;26.068;2023-03-14T06:24:22;5.85;;;2.45;;
40198;SDS011;25906;43.536;26.068;2023-03-14T06:27:07;5.88;;;2.80;;
40198;SDS011;25906;43.536;26.068;2023-03-14T06:29:53;4.70;;;2.88;;
40198;SDS011;25906;43.536;26.068;2023-03-14T06:32:38;6.32;;;2.80;;
40198;SDS011;25906;43.536;26.068;2023-03-14T06:35:24;3.72;;;2.58;;
40198;SDS011;25906;43.536;26.068;2023-03-14T06:38:09;6.80;;;2.83;;
40198;SDS011;25906;43.536;26.068;2023-03-14T06:40:54;5.50;;;2.72;;
40198;SDS011;25906;43.536;26.068;2023-03-14T06:43:40;6.97;;;2.85;;
40198;SDS011;25906;43.536;26.068;2023-03-14T06:46:26;5.68;;;3.13;;
40198;SDS011;25906;43.536;26.068;2023-03-14T06:49:11;4.35;;;2.58;;
40198;SDS011;25906;43.536;26.068;2023-03-14T06:51:57;11.25;;;3.38;;
40198;SDS011;25906;43.536;26.068;2023-03-14T06:54:42;5.45;;;3.28;;
40198;SDS011;25906;43.536;26.068;2023-03-14T06:57:27;4.43;;;2.22;;
40198;SDS011;25906;43.536;26.068;2023-03-14T07:00:13;13.35;;;5.18;;
40198;SDS011;25906;43.536;26.068;2023-03-14T07:02:58;5.88;;;3.40;;
40198;SDS011;25906;43.536;26.068;2023-03-14T07:05:44;5.07;;;2.72;;
40198;SDS011;25906;43.536;26.068;2023-03-14T07:08:29;4.68;;;2.67;;
40198;SDS011;25906;43.536;26.068;2023-03-14T07:11:15;3.72;;;2.15;;
40198;SDS011;25906;43.536;26.068;2023-03-14T07:14:00;5.93;;;2.78;;
40198;SDS011;25906;43.536;26.068;2023-03-14T07:16:45;4.93;;;2.60;;
40198;SDS011;25906;43.536;26.068;2023-03-14T07:19:31;4.68;;;2.78;;
40198;SDS011;25906;43.536;26.068;2023-03-14T07:22:16;6.13;;;2.58;;
40198;SDS011;25906;43.536;26.068;2023-03-14T07:25:02;5.25;;;2.65;;
40198;SDS011;25906;43.536;26.068;2023-03-14T07:27:47;4.25;;;2.60;;
40198;SDS011;25906;43.536;26.068;2023-03-14T07:30:32;3.55;;;2.35;;
40198;SDS011;25906;43.536;26.068;2023-03-14T07:33:18;6.00;;;2.30;;
40198;SDS011;25906;43.536;26.068;2023-03-14T07:36:03;4.60;;;2.47;;
40198;SDS011;25906;43.536;26.068;2023-03-14T07:41:34;10.40;;;2.20;;
40198;SDS011;25906;43.536;26.068;2023-03-14T07:44:20;5.63;;;2.42;;
40198;SDS011;25906;43.536;26.068;2023-03-14T07:47:05;6.13;;;2.30;;
40198;SDS011;25906;43.536;26.068;2023-03-14T07:49:51;3.88;;;2.00;;
40198;SDS011;25906;43.536;26.068;2023-03-14T07:52:36;9.25;;;2.35;;
40198;SDS011;25906;43.536;26.068;2023-03-14T07:55:21;5.10;;;2.70;;
40198;SDS011;25906;43.536;26.068;2023-03-14T07:58:07;4.13;;;2.55;;
40198;SDS011;25906;43.536;26.068;2023-03-14T08:00:52;2.95;;;1.92;;
40198;SDS011;25906;43.536;26.068;2023-03-14T08:03:38;6.63;;;2.75;;
40198;SDS011;25906;43.536;26.068;2023-03-14T08:06:23;3.90;;;2.25;;
40198;SDS011;25906;43.536;26.068;2023-03-14T08:09:08;2.92;;;2.08;;
40198;SDS011;25906;43.536;26.068;2023-03-14T08:11:54;2.42;;;1.90;;
40198;SDS011;25906;43.536;26.068;2023-03-14T08:14:39;3.75;;;2.17;;
40198;SDS011;25906;43.536;26.068;2023-03-14T08:17:25;2.78;;;2.00;;
40198;SDS011;25906;43.536;26.068;2023-03-14T08:20:11;2.95;;;2.00;;
40198;SDS011;25906;43.536;26.068;2023-03-14T08:22:58;3.17;;;2.10;;
40198;SDS011;25906;43.536;26.068;2023-03-14T08:25:44;3.97;;;1.80;;
40198;SDS011;25906;43.536;26.068;2023-03-14T08:28:30;4.97;;;2.10;;
40198;SDS011;25906;43.536;26.068;2023-03-14T08:31:18;2.40;;;1.50;;
40198;SDS011;25906;43.536;26.068;2023-03-14T08:34:03;2.85;;;1.80;;
40198;SDS011;25906;43.536;26.068;2023-03-14T08:36:48;4.85;;;2.08;;
40198;SDS011;25906;43.536;26.068;2023-03-14T08:39:35;2.90;;;1.77;;
40198;SDS011;25906;43.536;26.068;2023-03-14T08:42:20;5.65;;;2.50;;
40198;SDS011;25906;43.536;26.068;2023-03-14T08:45:06;3.75;;;1.90;;
40198;SDS011;25906;43.536;26.068;2023-03-14T08:47:53;4.00;;;1.80;;
40198;SDS011;25906;43.536;26.068;2023-03-14T08:50:38;4.95;;;1.90;;
40198;SDS011;25906;43.536;26.068;2023-03-14T08:53:24;1.95;;;1.67;;
40198;SDS011;25906;43.536;26.068;2023-03-14T08:56:09;2.38;;;1.70;;
40198;SDS011;25906;43.536;26.068;2023-03-14T08:58:55;3.03;;;1.60;;
40198;SDS011;25906;43.536;26.068;2023-03-14T09:01:40;4.03;;;1.83;;
40198;SDS011;25906;43.536;26.068;2023-03-14T09:04:26;3.00;;;1.98;;
40198;SDS011;25906;43.536;26.068;2023-03-14T09:07:11;2.55;;;1.60;;
40198;SDS011;25906;43.536;26.068;2023-03-14T09:09:56;4.35;;;1.60;;
40198;SDS011;25906;43.536;26.068;2023-03-14T09:12:42;2.60;;;1.50;;
40198;SDS011;25906;43.536;26.068;2023-03-14T09:15:27;3.20;;;1.67;;
40198;SDS011;25906;43.536;26.068;2023-03-14T09:18:13;2.47;;;1.80;;
40198;SDS011;25906;43.536;26.068;2023-03-14T09:20:58;2.15;;;1.40;;
40198;SDS011;25906;43.536;26.068;2023-03-14T09:23:43;9.48;;;2.35;;
40198;SDS011;25906;43.536;26.068;2023-03-14T09:26:30;3.70;;;2.28;;
40198;SDS011;25906;43.536;26.068;2023-03-14T09:29:16;2.85;;;2.25;;
40198;SDS011;25906;43.536;26.068;2023-03-14T09:32:02;5.18;;;2.72;;
40198;SDS011;25906;43.536;26.068;2023-03-14T09:34:48;4.30;;;2.88;;
40198;SDS011;25906;43.536;26.068;2023-03-14T09:37:33;2.58;;;2.17;;
40198;SDS011;25906;43.536;26.068;2023-03-14T09:40:19;4.95;;;2.00;;
40198;SDS011;25906;43.536;26.068;2023-03-14T09:43:11;2.42;;;1.70;;
40198;SDS011;25906;43.536;26.068;2023-03-14T09:45:59;3.30;;;1.60;;
40198;SDS011;25906;43.536;26.068;2023-03-14T09:48:47;1.73;;;1.50;;
40198;SDS011;25906;43.536;26.068;2023-03-14T09:51:33;4.00;;;1.58;;
40198;SDS011;25906;43.536;26.068;2023-03-14T09:54:38;1.33;;;1.23;;
40198;SDS011;25906;43.536;26.068;2023-03-14T09:57:28;2.28;;;1.58;;
40198;SDS011;25906;43.536;26.068;2023-03-14T10:03:00;2.35;;;1.20;;
40198;SDS011;25906;43.536;26.068;2023-03-14T10:06:09;5.00;;;1.60;;
40198;SDS011;25906;43.536;26.068;2023-03-14T10:08:56;3.65;;;1.52;;
40198;SDS011;25906;43.536;26.068;2023-03-14T10:11:42;2.13;;;1.35;;
40198;SDS011;25906;43.536;26.068;2023-03-14T10:14:35;3.33;;;1.60;;
40198;SDS011;25906;43.536;26.068;2023-03-14T10:17:22;2.95;;;1.60;;
40198;SDS011;25906;43.536;26.068;2023-03-14T10:20:28;4.90;;;1.90;;
40198;SDS011;25906;43.536;26.068;2023-03-14T10:23:24;3.03;;;1.60;;
40198;SDS011;25906;43.536;26.068;2023-03-14T10:26:14;3.35;;;2.05;;
40198;SDS011;25906;43.536;26.068;2023-03-14T10:29:11;2.85;;;2.00;;
40198;SDS011;25906;43.536;26.068;2023-03-14T10:31:58;4.60;;;2.15;;
40198;SDS011;25906;43.536;26.068;2023-03-14T10:35:03;3.28;;;1.75;;
40198;SDS011;25906;43.536;26.068;2023-03-14T10:37:57;4.00;;;2.08;;
40198;SDS011;25906;43.536;26.068;2023-03-14T10:40:46;3.42;;;2.35;;
40198;SDS011;25906;43.536;26.068;2023-03-14T10:43:38;4.82;;;2.40;;
40198;SDS011;25906;43.536;26.068;2023-03-14T10:46:24;4.22;;;2.67;;
40198;SDS011;25906;43.536;26.068;2023-03-14T10:49:22;3.55;;;2.13;;
40198;SDS011;25906;43.536;26.068;2023-03-14T10:55:11;1.90;;;1.70;;
40198;SDS011;25906;43.536;26.068;2023-03-14T10:57:57;2.53;;;1.60;;
40198;SDS011;25906;43.536;26.068;2023-03-14T11:00:43;4.68;;;1.60;;
40198;SDS011;25906;43.536;26.068;2023-03-14T11:03:31;2.25;;;1.58;;
40198;SDS011;25906;43.536;26.068;2023-03-14T11:06:20;2.70;;;1.50;;
40198;SDS011;25906;43.536;26.068;2023-03-14T11:15:42;1.83;;;1.40;;
40198;SDS011;25906;43.536;26.068;2023-03-14T11:18:39;2.65;;;1.40;;
40198;SDS011;25906;43.536;26.068;2023-03-14T11:33:37;3.42;;;1.58;;
40198;SDS011;25906;43.536;26.068;2023-03-14T11:36:27;1.90;;;1.40;;
40198;SDS011;25906;43.536;26.068;2023-03-14T11:39:18;1.48;;;1.25;;
40198;SDS011;25906;43.536;26.068;2023-03-14T11:42:04;1.90;;;1.20;;
40198;SDS011;25906;43.536;26.068;2023-03-14T11:44:57;1.70;;;1.30;;
40198;SDS011;25906;43.536;26.068;2023-03-14T11:47:46;2.33;;;1.50;;
40198;SDS011;25906;43.536;26.068;2023-03-14T11:53:45;1.95;;;1.30;;
40198;SDS011;25906;43.536;26.068;2023-03-14T11:59:27;1.77;;;1.02;;
40198;SDS011;25906;43.536;26.068;2023-03-14T12:02:20;2.67;;;1.30;;
40198;SDS011;25906;43.536;26.068;2023-03-14T12:10:55;4.10;;;1.17;;
40198;SDS011;25906;43.536;26.068;2023-03-14T12:13:46;3.20;;;1.08;;
40198;SDS011;25906;43.536;26.068;2023-03-14T12:16:37;2.15;;;1.00;;
40198;SDS011;25906;43.536;26.068;2023-03-14T12:25:04;1.23;;;0.85;;
40198;SDS011;25906;43.536;26.068;2023-03-14T12:28:20;2.30;;;0.90;;
40198;SDS011;25906;43.536;26.068;2023-03-14T12:39:58;1.92;;;1.10;;
40198;SDS011;25906;43.536;26.068;2023-03-14T12:42:54;3.78;;;0.90;;
40198;SDS011;25906;43.536;26.068;2023-03-14T12:46:00;3.50;;;1.05;;
40198;SDS011;25906;43.536;26.068;2023-03-14T12:48:54;1.40;;;0.90;;
40198;SDS011;25906;43.536;26.068;2023-03-14T12:51:40;2.92;;;0.95;;
40198;SDS011;25906;43.536;26.068;2023-03-14T13:00:44;3.85;;;1.00;;
40198;SDS011;25906;43.536;26.068;2023-03-14T13:06:57;2.22;;;1.05;;
40198;SDS011;25906;43.536;26.068;2023-03-14T13:10:45;7.20;;;1.10;;
40198;SDS011;25906;43.536;26.068;2023-03-14T13:13:13;1.42;;;1.10;;
40198;SDS011;25906;43.536;26.068;2023-03-14T13:16:03;1.80;;;0.93;;
40198;SDS011;25906;43.536;26.068;2023-03-14T13:19:02;5.47;;;0.90;;
40198;SDS011;25906;43.536;26.068;2023-03-14T13:22:11;2.45;;;0.90;;
40198;SDS011;25906;43.536;26.068;2023-03-14T13:25:04;2.42;;;0.90;;
40198;SDS011;25906;43.536;26.068;2023-03-14T13:27:54;2.05;;;1.00;;
40198;SDS011;25906;43.536;26.068;2023-03-14T13:30:41;1.40;;;0.80;;
40198;SDS011;25906;43.536;26.068;2023-03-14T13:33:28;1.02;;;0.90;;
40198;SDS011;25906;43.536;26.068;2023-03-14T13:36:14;7.95;;;1.20;;
40198;SDS011;25906;43.536;26.068;2023-03-14T13:39:10;1.52;;;1.20;;
40198;SDS011;25906;43.536;26.068;2023-03-14T13:41:59;1.40;;;0.90;;
40198;SDS011;25906;43.536;26.068;2023-03-14T13:44:45;1.75;;;0.90;;
40198;SDS011;25906;43.536;26.068;2023-03-14T13:50:17;1.00;;;0.90;;
40198;SDS011;25906;43.536;26.068;2023-03-14T13:53:03;1.67;;;0.90;;
40198;SDS011;25906;43.536;26.068;2023-03-14T13:55:49;1.38;;;0.77;;
40198;SDS011;25906;43.536;26.068;2023-03-14T13:58:36;1.15;;;0.77;;
40198;SDS011;25906;43.536;26.068;2023-03-14T14:04:17;8.07;;;0.95;;
40198;SDS011;25906;43.536;26.068;2023-03-14T14:07:07;3.20;;;1.48;;
40198;SDS011;25906;43.536;26.068;2023-03-14T14:09:56;1.88;;;0.90;;
40198;SDS011;25906;43.536;26.068;2023-03-14T14:12:47;1.58;;;0.82;;
40198;SDS011;25906;43.536;26.068;2023-03-14T14:15:39;1.15;;;0.80;;
40198;SDS011;25906;43.536;26.068;2023-03-14T14:18:28;1.50;;;0.90;;
40198;SDS011;25906;43.536;26.068;2023-03-14T14:21:14;0.82;;;0.82;;
40198;SDS011;25906;43.536;26.068;2023-03-14T14:24:00;4.05;;;1.05;;
40198;SDS011;25906;43.536;26.068;2023-03-14T14:26:58;0.88;;;0.80;;
40198;SDS011;25906;43.536;26.068;2023-03-14T14:29:56;6.82;;;1.88;;
40198;SDS011;25906;43.536;26.068;2023-03-14T14:32:42;3.90;;;0.80;;
40198;SDS011;25906;43.536;26.068;2023-03-14T14:35:32;0.90;;;0.75;;
40198;SDS011;25906;43.536;26.068;2023-03-14T14:38:19;3.03;;;0.82;;
40198;SDS011;25906;43.536;26.068;2023-03-14T14:41:05;1.88;;;0.75;;
40198;SDS011;25906;43.536;26.068;2023-03-14T14:43:51;3.28;;;0.90;;
40198;SDS011;25906;43.536;26.068;2023-03-14T14:46:36;3.28;;;1.00;;
40198;SDS011;25906;43.536;26.068;2023-03-14T14:52:14;4.80;;;1.40;;
40198;SDS011;25906;43.536;26.068;2023-03-14T14:55:01;3.25;;;0.80;;
40198;SDS011;25906;43.536;26.068;2023-03-14T14:57:49;1.00;;;0.70;;
40198;SDS011;25906;43.536;26.068;2023-03-14T15:00:39;2.45;;;0.80;;
40198;SDS011;25906;43.536;26.068;2023-03-14T15:03:26;0.68;;;0.68;;
40198;SDS011;25906;43.536;26.068;2023-03-14T15:06:14;1.20;;;0.77;;
40198;SDS011;25906;43.536;26.068;2023-03-14T15:09:01;2.63;;;0.90;;
40198;SDS011;25906;43.536;26.068;2023-03-14T15:11:47;2.53;;;1.00;;
40198;SDS011;25906;43.536;26.068;2023-03-14T15:14:33;0.50;;;0.50;;
40198;SDS011;25906;43.536;26.068;2023-03-14T15:17:18;2.60;;;0.70;;
40198;SDS011;25906;43.536;26.068;2023-03-14T15:20:04;0.68;;;0.60;;
40198;SDS011;25906;43.536;26.068;2023-03-14T15:22:54;2.20;;;0.60;;
40198;SDS011;25906;43.536;26.068;2023-03-14T15:25:40;1.10;;;0.50;;
40198;SDS011;25906;43.536;26.068;2023-03-14T15:28:27;1.25;;;0.70;;
40198;SDS011;25906;43.536;26.068;2023-03-14T15:31:14;2.15;;;0.60;;
40198;SDS011;25906;43.536;26.068;2023-03-14T15:34:02;0.80;;;0.65;;
40198;SDS011;25906;43.536;26.068;2023-03-14T15:36:48;3.03;;;0.70;;
40198;SDS011;25906;43.536;26.068;2023-03-14T15:39:34;0.95;;;0.60;;
40198;SDS011;25906;43.536;26.068;2023-03-14T15:42:19;1.20;;;0.85;;
40198;SDS011;25906;43.536;26.068;2023-03-14T15:45:05;2.05;;;0.80;;
40198;SDS011;25906;43.536;26.068;2023-03-14T15:47:51;0.60;;;0.60;;
40198;SDS011;25906;43.536;26.068;2023-03-14T15:50:37;1.27;;;0.70;;
40198;SDS011;25906;43.536;26.068;2023-03-14T15:53:22;1.30;;;0.95;;
40198;SDS011;25906;43.536;26.068;2023-03-14T15:56:10;1.35;;;0.52;;
40198;SDS011;25906;43.536;26.068;2023-03-14T15:58:58;2.13;;;0.70;;
40198;SDS011;25906;43.536;26.068;2023-03-14T16:01:43;2.97;;;0.70;;
40198;SDS011;25906;43.536;26.068;2023-03-14T16:04:28;1.20;;;0.90;;
40198;SDS011;25906;43.536;26.068;2023-03-14T16:07:14;1.80;;;0.80;;
40198;SDS011;25906;43.536;26.068;2023-03-14T16:09:59;1.40;;;0.80;;
40198;SDS011;25906;43.536;26.068;2023-03-14T16:12:45;2.10;;;0.90;;
40198;SDS011;25906;43.536;26.068;2023-03-14T16:15:30;1.38;;;1.10;;
40198;SDS011;25906;43.536;26.068;2023-03-14T16:18:16;2.55;;;1.33;;
40198;SDS011;25906;43.536;26.068;2023-03-14T16:21:05;7.88;;;1.20;;
40198;SDS011;25906;43.536;26.068;2023-03-14T16:23:52;3.67;;;0.70;;
40198;SDS011;25906;43.536;26.068;2023-03-14T16:26:38;1.02;;;0.68;;
40198;SDS011;25906;43.536;26.068;2023-03-14T16:29:23;3.38;;;1.17;;
40198;SDS011;25906;43.536;26.068;2023-03-14T16:32:09;1.65;;;0.90;;
40198;SDS011;25906;43.536;26.068;2023-03-14T16:34:54;7.60;;;1.15;;
40198;SDS011;25906;43.536;26.068;2023-03-14T16:37:40;3.63;;;0.80;;
40198;SDS011;25906;43.536;26.068;2023-03-14T16:40:25;1.77;;;0.85;;
40198;SDS011;25906;43.536;26.068;2023-03-14T16:43:10;3.47;;;0.93;;
40198;SDS011;25906;43.536;26.068;2023-03-14T16:45:56;1.45;;;0.90;;
40198;SDS011;25906;43.536;26.068;2023-03-14T16:48:44;4.20;;;1.23;;
40198;SDS011;25906;43.536;26.068;2023-03-14T16:51:30;1.30;;;0.70;;
40198;SDS011;25906;43.536;26.068;2023-03-14T16:54:15;9.07;;;1.45;;
40198;SDS011;25906;43.536;26.068;2023-03-14T16:57:00;1.83;;;1.00;;
40198;SDS011;25906;43.536;26.068;2023-03-14T16:59:46;7.93;;;2.67;;
40198;SDS011;25906;43.536;26.068;2023-03-14T17:02:31;1.73;;;1.05;;
40198;SDS011;25906;43.536;26.068;2023-03-14T17:05:17;2.13;;;1.08;;
40198;SDS011;25906;43.536;26.068;2023-03-14T17:08:02;3.55;;;1.05;;
40198;SDS011;25906;43.536;26.068;2023-03-14T17:10:48;2.92;;;1.05;;
40198;SDS011;25906;43.536;26.068;2023-03-14T17:13:35;4.70;;;1.58;;
40198;SDS011;25906;43.536;26.068;2023-03-14T17:16:21;4.88;;;1.33;;
40198;SDS011;25906;43.536;26.068;2023-03-14T17:19:07;5.90;;;1.33;;
40198;SDS011;25906;43.536;26.068;2023-03-14T17:21:52;10.48;;;1.45;;
40198;SDS011;25906;43.536;26.068;2023-03-14T17:24:38;3.38;;;1.38;;
40198;SDS011;25906;43.536;26.068;2023-03-14T17:27:24;1.65;;;1.30;;
40198;SDS011;25906;43.536;26.068;2023-03-14T17:30:09;2.83;;;1.70;;
40198;SDS011;25906;43.536;26.068;2023-03-14T17:32:55;5.78;;;1.70;;
40198;SDS011;25906;43.536;26.068;2023-03-14T17:35:44;2.85;;;1.55;;
40198;SDS011;25906;43.536;26.068;2023-03-14T17:38:30;5.45;;;1.92;;
40198;SDS011;25906;43.536;26.068;2023-03-14T17:41:16;4.63;;;2.60;;
40198;SDS011;25906;43.536;26.068;2023-03-14T17:44:01;5.95;;;1.60;;
40198;SDS011;25906;43.536;26.068;2023-03-14T17:46:47;5.80;;;1.48;;
40198;SDS011;25906;43.536;26.068;2023-03-14T17:49:32;2.63;;;1.67;;
40198;SDS011;25906;43.536;26.068;2023-03-14T17:52:18;2.45;;;1.60;;
40198;SDS011;25906;43.536;26.068;2023-03-14T17:55:04;3.13;;;1.80;;
40198;SDS011;25906;43.536;26.068;2023-03-14T17:57:50;2.45;;;1.33;;
40198;SDS011;25906;43.536;26.068;2023-03-14T18:00:35;5.18;;;1.70;;